createdAt,value
2023-03-23T15:59:13.592Z,4.82
2023-03-23T16:01:45.746Z,4.55
2023-03-23T16:04:19.550Z,6.47
2023-03-23T16:06:53.126Z,3.95
2023-03-23T16:09:25.110Z,7.27
2023-03-23T16:11:57.828Z,6.07
2023-03-23T16:14:29.512Z,4.05
2023-03-23T16:17:01.211Z,4.47
2023-03-23T16:19:33.104Z,5.53
2023-03-23T16:22:06.091Z,4.88
2023-03-23T16:24:38.484Z,2.85
2023-03-23T16:27:11.426Z,4.78
2023-03-23T16:30:00.392Z,2.60
2023-03-23T16:35:05.977Z,5.32
2023-03-23T16:37:37.826Z,3.35
2023-03-23T16:40:12.987Z,5.05
2023-03-23T16:42:48.783Z,3.53
2023-03-23T16:45:24.229Z,2.88
2023-03-23T16:48:01.397Z,4.13
2023-03-23T16:50:34.152Z,4.93
2023-03-23T16:53:09.830Z,2.70
2023-03-23T16:55:42.227Z,5.15
2023-03-23T16:58:18.187Z,4.20
2023-03-23T17:00:52.096Z,3.58
2023-03-23T17:03:23.876Z,3.27
2023-03-23T17:05:55.704Z,5.65
2023-03-23T17:08:28.626Z,5.15
2023-03-23T17:11:00.736Z,6.13
2023-03-23T17:13:34.163Z,2.78
2023-03-23T17:16:06.384Z,2.25
2023-03-23T17:18:38.213Z,2.22
2023-03-23T17:21:10.279Z,4.80
2023-03-23T17:23:41.967Z,2.70
2023-03-23T17:26:13.648Z,3.22
2023-03-23T17:28:45.890Z,13.93
2023-03-23T17:31:17.732Z,2.95
2023-03-23T17:33:49.642Z,4.03
2023-03-23T17:36:21.497Z,2.97
2023-03-23T17:38:53.264Z,22.55
2023-03-23T17:41:24.937Z,4.78
2023-03-23T17:43:56.674Z,3.90
2023-03-23T17:46:28.400Z,6.30
2023-03-23T17:49:00.106Z,5.57
2023-03-23T17:51:31.813Z,4.00
2023-03-23T17:54:03.831Z,4.95
2023-03-23T17:56:35.773Z,3.75
2023-03-23T17:59:08.059Z,5.13
2023-03-23T18:01:39.835Z,4.63
2023-03-23T18:04:11.577Z,3.90
2023-03-23T18:06:43.530Z,4.40
2023-03-23T18:09:15.704Z,5.82
2023-03-23T18:11:47.392Z,5.25
2023-03-23T18:14:19.748Z,5.60
2023-03-23T18:16:53.067Z,5.57
2023-03-23T18:19:24.902Z,5.10
2023-03-23T18:21:56.698Z,6.20
2023-03-23T18:24:28.359Z,9.57
2023-03-23T18:27:02.131Z,4.28
2023-03-23T18:29:33.792Z,7.00
2023-03-23T18:32:07.227Z,6.07
2023-03-23T18:34:41.670Z,4.07
2023-03-23T18:37:13.636Z,3.28
2023-03-23T18:39:45.388Z,3.22
2023-03-23T18:42:17.103Z,5.93
2023-03-23T18:44:48.947Z,3.42
2023-03-23T18:47:21.535Z,4.55
2023-03-23T18:49:55.324Z,3.20
2023-03-23T18:52:30.188Z,3.78
2023-03-23T18:55:02.087Z,3.75
2023-03-23T18:57:34.012Z,4.55
2023-03-23T19:00:08.056Z,6.07
2023-03-23T19:02:40.154Z,6.40
2023-03-23T19:05:12.174Z,3.42
2023-03-23T19:07:44.042Z,5.43
2023-03-23T19:10:17.318Z,6.65
2023-03-23T19:12:50.430Z,6.78
2023-03-23T19:15:24.714Z,6.82
2023-03-23T19:17:59.834Z,5.35
2023-03-23T19:21:06.059Z,4.57
2023-03-23T19:23:24.446Z,5.38
2023-03-23T19:25:57.047Z,7.35
2023-03-23T19:33:35.614Z,6.68
2023-03-23T19:36:13.092Z,49.03
2023-03-23T19:38:45.424Z,59.80
2023-03-23T19:41:19.007Z,54.53
2023-03-23T19:43:51.439Z,53.47
2023-03-23T19:46:24.057Z,54.07
2023-03-23T19:48:56.524Z,47.03
2023-03-23T19:51:28.664Z,48.73
2023-03-23T19:54:01.049Z,50.43
2023-03-23T19:56:34.453Z,47.43
2023-03-23T19:59:09.574Z,50.75
2023-03-23T20:01:42.400Z,49.20
2023-03-23T20:04:14.159Z,48.13
2023-03-23T20:06:46.309Z,44.67
2023-03-23T20:09:18.505Z,47.67
2023-03-23T20:11:50.509Z,51.83
2023-03-23T20:14:22.659Z,46.77
2023-03-23T20:16:54.959Z,46.87
2023-03-23T20:19:28.755Z,44.80
2023-03-23T20:22:01.676Z,46.90
2023-03-23T20:24:33.634Z,44.83
2023-03-23T20:27:05.393Z,48.87
2023-03-23T20:29:37.098Z,49.20
2023-03-23T20:32:12.439Z,44.37
2023-03-23T20:34:49.236Z,42.87
2023-03-23T20:37:20.983Z,52.20
2023-03-23T20:39:52.894Z,49.00
2023-03-23T20:42:29.448Z,46.77
2023-03-23T20:45:03.714Z,45.17
2023-03-23T20:47:35.638Z,47.97
2023-03-23T20:50:09.482Z,45.07
2023-03-23T20:52:41.727Z,54.97
2023-03-23T20:55:15.311Z,47.63
2023-03-23T20:57:47.040Z,44.60
2023-03-23T21:00:18.893Z,49.27
2023-03-23T21:02:54.189Z,44.97
2023-03-23T21:05:26.037Z,46.93
2023-03-23T21:07:58.985Z,41.53
2023-03-23T21:10:30.650Z,46.07
2023-03-23T21:13:02.639Z,45.57
2023-03-23T21:15:34.676Z,44.07
2023-03-23T21:18:06.627Z,44.10
2023-03-23T21:20:38.896Z,43.60
2023-03-23T21:23:11.128Z,44.07
2023-03-23T21:25:44.619Z,44.50
2023-03-23T21:28:17.345Z,44.40
2023-03-23T21:30:52.465Z,44.10
2023-03-23T21:33:24.158Z,45.50
2023-03-23T21:35:55.967Z,44.97
2023-03-23T21:38:28.746Z,44.80
2023-03-23T21:41:07.552Z,43.80
2023-03-23T21:43:40.694Z,42.93
2023-03-23T21:46:18.195Z,42.90
2023-03-23T21:48:53.178Z,42.70
2023-03-23T21:51:27.793Z,41.23
2023-03-23T21:54:00.811Z,40.13
2023-03-23T21:56:32.802Z,43.57
2023-03-23T21:59:07.497Z,40.70
2023-03-23T22:01:40.828Z,42.33
2023-03-23T22:04:12.467Z,42.27
2023-03-23T22:06:44.630Z,41.80
2023-03-23T22:09:17.303Z,42.03
2023-03-23T22:11:53.595Z,45.63
2023-03-23T22:14:25.646Z,44.07
2023-03-23T22:16:57.451Z,44.13
2023-03-23T22:19:29.174Z,43.27
2023-03-23T22:22:04.126Z,41.10
2023-03-23T22:24:38.676Z,40.30
2023-03-23T22:27:10.909Z,39.75
2023-03-23T22:29:42.845Z,41.73
2023-03-23T22:32:14.731Z,41.80
2023-03-23T22:34:47.362Z,41.60
2023-03-23T22:37:19.216Z,39.37
2023-03-23T22:39:51.215Z,39.40
2023-03-23T22:42:22.875Z,42.50
2023-03-23T22:44:54.522Z,42.33
2023-03-23T22:47:26.184Z,41.17
2023-03-23T22:49:57.875Z,39.67
2023-03-23T22:52:33.794Z,42.00
2023-03-23T22:55:07.403Z,41.90
2023-03-23T22:57:41.072Z,28.10
2023-03-23T23:00:18.565Z,9.70
2023-03-23T23:02:50.582Z,8.85
2023-03-23T23:05:22.295Z,10.07
2023-03-23T23:07:53.980Z,10.07
2023-03-23T23:10:25.873Z,9.10
2023-03-23T23:12:57.755Z,9.55
2023-03-23T23:15:29.399Z,7.88
2023-03-23T23:18:01.247Z,7.38
2023-03-23T23:20:33.408Z,8.45
2023-03-23T23:23:05.867Z,7.00
2023-03-23T23:25:37.771Z,7.03
2023-03-23T23:28:12.634Z,7.97
2023-03-23T23:30:45.615Z,7.05
2023-03-23T23:33:18.824Z,12.32
2023-03-23T23:35:50.520Z,7.40
2023-03-23T23:38:22.263Z,6.60
2023-03-23T23:40:53.903Z,6.75
2023-03-23T23:43:25.559Z,7.95
2023-03-23T23:45:57.379Z,6.85
2023-03-23T23:48:29.065Z,6.60
2023-03-23T23:51:00.918Z,5.18
2023-03-23T23:53:34.080Z,5.25
2023-03-23T23:56:09.647Z,5.25
2023-03-23T23:58:41.336Z,6.13
